Time;durP1;ratioP1;P1;durP2;ratioP2;P2;SDS_P1;SDS_P2;PMS_P1;PMS_P2;Temp;Humidity;BMP_temperature;BMP_pressure;BME280_temperature;BME280_humidity;BME280_pressure;Samples;Min_cycle;Max_cycle;Signal;HPM_P1;HPM_P2
2021/06/28 00:00:12;;;;;;;10.82;9.05;;;23.30;84.20;;;;;;4993797;28;20185;-94
2021/06/28 00:02:38;;;;;;;8.70;8.05;;;23.30;84.20;;;;;;5000767;28;20177;-93
2021/06/28 00:05:07;;;;;;;9.38;8.68;;;23.20;84.30;;;;;;5000575;28;20242;-94
2021/06/28 00:07:35;;;;;;;9.25;8.45;;;23.30;84.00;;;;;;4995039;28;20201;-92
2021/06/28 00:10:00;;;;;;;8.65;7.78;;;23.40;83.50;;;;;;4993558;28;20190;-91
2021/06/28 00:12:30;;;;;;;9.23;8.32;;;23.50;83.10;;;;;;5011830;28;20185;-93
2021/06/28 00:14:56;;;;;;;8.85;7.95;;;23.50;83.10;;;;;;4962250;28;20293;-92
2021/06/28 00:17:21;;;;;;;10.30;9.32;;;23.30;83.90;;;;;;5019143;28;20197;-93
2021/06/28 00:19:47;;;;;;;9.88;9.05;;;23.30;84.30;;;;;;4983458;28;20269;-91
2021/06/28 00:22:13;;;;;;;9.35;8.60;;;23.20;84.80;;;;;;5010286;28;20722;-91
2021/06/28 00:24:39;;;;;;;8.98;7.95;;;23.10;84.90;;;;;;4993319;28;20566;-91
2021/06/28 00:27:05;;;;;;;10.02;9.07;;;23.20;84.60;;;;;;5010798;28;20202;-90
2021/06/28 00:29:30;;;;;;;10.18;8.95;;;23.20;84.50;;;;;;5010414;28;20495;-94
2021/06/28 00:31:56;;;;;;;10.15;9.15;;;23.20;84.80;;;;;;5010409;28;20216;-93
2021/06/28 00:34:22;;;;;;;9.10;8.30;;;23.20;84.80;;;;;;4991819;28;20701;-91
2021/06/28 00:37:03;;;;;;;9.07;8.27;;;23.20;84.70;;;;;;4996686;28;20198;-91
2021/06/28 00:39:36;;;;;;;9.23;8.43;;;23.30;83.80;;;;;;4998892;28;20201;-89
2021/06/28 00:42:02;;;;;;;8.65;7.95;;;23.40;82.80;;;;;;4982906;28;20262;-90
2021/06/28 00:44:31;;;;;;;9.23;8.38;;;23.50;83.00;;;;;;5016892;28;20205;-91
2021/06/28 00:46:57;;;;;;;8.90;8.20;;;23.60;82.70;;;;;;5008694;28;20210;-93
2021/06/28 00:49:30;;;;;;;9.70;8.90;;;23.50;82.70;;;;;;4999025;28;20181;-93
2021/06/28 00:51:57;;;;;;;9.77;8.85;;;23.60;82.40;;;;;;4999467;28;20177;-92
2021/06/28 00:54:24;;;;;;;9.10;8.45;;;23.50;82.70;;;;;;4996629;28;20198;-93
2021/06/28 00:57:05;;;;;;;8.38;7.80;;;23.50;82.70;;;;;;4980162;28;20224;-92
2021/06/28 00:59:32;;;;;;;9.68;8.80;;;23.60;81.60;;;;;;4997301;28;20182;-92
2021/06/28 01:02:01;;;;;;;11.15;8.95;;;23.50;82.80;;;;;;4980405;28;20851;-92
2021/06/28 01:04:32;;;;;;;9.88;8.98;;;23.50;81.90;;;;;;4998267;28;20707;-90
2021/06/28 01:07:04;;;;;;;9.77;8.88;;;23.60;82.20;;;;;;4980766;28;20292;-92
2021/06/28 02:23:20;;;;;;;8.23;7.63;;;23.30;82.40;;;;;;4864017;22;20609;-92
2021/06/28 02:25:47;;;;;;;7.80;7.03;;;23.30;82.00;;;;;;4996423;28;20186;-92
2021/06/28 02:28:13;;;;;;;7.63;6.93;;;23.30;81.50;;;;;;4996045;28;20824;-91
2021/06/28 02:30:39;;;;;;;7.82;7.28;;;23.30;81.30;;;;;;4994713;28;20229;-91
2021/06/28 02:33:05;;;;;;;7.82;7.32;;;23.40;81.30;;;;;;4995872;28;20186;-92
2021/06/28 02:35:30;;;;;;;7.55;6.85;;;23.30;81.80;;;;;;4995221;28;20241;-92
2021/06/28 02:37:56;;;;;;;8.05;7.43;;;23.20;82.60;;;;;;4977619;28;20198;-93
2021/06/28 02:40:22;;;;;;;8.05;7.45;;;23.20;82.40;;;;;;4978158;28;20183;-92
2021/06/28 02:42:47;;;;;;;7.75;7.10;;;23.20;82.40;;;;;;4995326;28;20194;-91
2021/06/28 02:45:13;;;;;;;8.50;7.78;;;23.20;82.40;;;;;;4994993;28;20686;-92
2021/06/28 02:47:39;;;;;;;7.85;7.22;;;23.20;81.80;;;;;;4994634;28;20218;-92
2021/06/28 02:50:11;;;;;;;8.18;7.57;;;23.20;81.70;;;;;;4994587;28;20186;-92
2021/06/28 02:52:37;;;;;;;7.65;6.95;;;23.20;81.80;;;;;;4995248;28;20167;-91
2021/06/28 02:55:05;;;;;;;7.47;6.82;;;23.20;81.70;;;;;;4995363;28;20178;-93
2021/06/28 02:57:32;;;;;;;7.35;6.85;;;23.20;81.40;;;;;;4994556;28;20752;-92
2021/06/28 02:59:58;;;;;;;7.38;6.88;;;23.10;81.00;;;;;;4995408;28;20189;-91
2021/06/28 03:02:24;;;;;;;7.57;7.03;;;23.10;81.20;;;;;;4995253;28;20241;-91
2021/06/28 03:04:49;;;;;;;7.63;6.93;;;23.10;81.30;;;;;;4995600;28;20202;-93
2021/06/28 03:07:15;;;;;;;8.23;7.45;;;23.10;80.50;;;;;;4978293;28;20198;-92
2021/06/28 03:27:15;;;;;;;;;;;;;;;;;;;;;
2021/06/28 04:27:18;;;;;;;6.97;6.47;;;22.60;83.60;;;;;;4953337;28;20198;-92
2021/06/28 04:30:16;;;;;;;;;;;;;;;;;;;;;
2021/06/28 05:04:10;;;;;;;8.05;6.90;;;22.70;82.30;;;;;;4171739;26;20239;-91
2021/06/28 05:06:35;;;;;;;7.43;6.93;;;22.80;82.70;;;;;;5035928;28;20173;-91
2021/06/28 05:09:01;;;;;;;10.57;8.90;;;22.80;82.60;;;;;;5004433;28;20192;-91
2021/06/28 05:11:27;;;;;;;8.48;7.82;;;22.80;82.70;;;;;;5017748;28;20185;-90
2021/06/28 05:13:52;;;;;;;7.82;7.20;;;22.90;82.70;;;;;;5017746;28;20197;-91
2021/06/28 05:16:18;;;;;;;6.95;6.35;;;22.90;81.10;;;;;;5003815;28;20275;-91
2021/06/28 05:18:47;;;;;;;6.97;6.47;;;23.00;80.60;;;;;;5042997;28;20200;-93
2021/06/28 05:21:13;;;;;;;7.35;6.82;;;23.10;79.60;;;;;;5029815;28;20181;-93
2021/06/28 05:23:40;;;;;;;7.57;6.97;;;23.10;79.30;;;;;;5027961;28;20208;-91
2021/06/28 05:26:05;;;;;;;7.60;6.85;;;23.10;79.30;;;;;;5027045;28;20189;-93
2021/06/28 05:28:32;;;;;;;6.72;6.15;;;23.20;78.90;;;;;;5044064;28;20264;-94
2021/06/28 05:30:58;;;;;;;8.68;7.45;;;23.20;78.20;;;;;;5026689;28;20226;-93
2021/06/28 05:33:24;;;;;;;7.95;7.15;;;23.30;78.80;;;;;;5009749;28;20231;-93
2021/06/28 05:35:53;;;;;;;7.40;6.88;;;23.20;78.50;;;;;;5042694;28;20181;-92
2021/06/28 05:38:19;;;;;;;7.47;6.88;;;23.30;78.60;;;;;;5025986;28;20232;-94
2021/06/28 05:40:44;;;;;;;7.63;7.03;;;23.30;79.00;;;;;;5044716;28;20184;-92
2021/06/28 05:43:10;;;;;;;7.47;6.88;;;23.40;78.60;;;;;;5044005;28;20181;-92
2021/06/28 05:45:36;;;;;;;7.80;7.18;;;23.40;78.90;;;;;;5047187;28;20197;-91
2021/06/28 05:48:02;;;;;;;8.05;7.28;;;23.30;78.90;;;;;;5009485;28;20269;-92
2021/06/28 05:50:28;;;;;;;7.95;7.18;;;23.30;79.40;;;;;;5026556;28;20178;-92
2021/06/28 05:52:56;;;;;;;8.05;7.35;;;23.20;80.90;;;;;;5027113;28;20181;-92
2021/06/28 05:55:22;;;;;;;8.40;7.57;;;23.20;80.50;;;;;;5009499;28;20186;-92
2021/06/28 05:57:48;;;;;;;7.10;6.60;;;23.30;79.60;;;;;;5009751;28;20228;-92
2021/06/28 06:00:14;;;;;;;7.53;6.85;;;23.30;79.90;;;;;;5010231;28;20645;-92
2021/06/28 06:02:40;;;;;;;7.32;6.63;;;23.40;79.40;;;;;;5027232;28;20240;-92
2021/06/28 06:05:08;;;;;;;6.90;6.40;;;23.60;78.40;;;;;;5010195;28;20213;-92
2021/06/28 06:07:35;;;;;;;6.88;6.32;;;23.60;77.20;;;;;;5009622;28;20208;-92
2021/06/28 06:10:04;;;;;;;6.82;6.32;;;23.70;77.40;;;;;;5009672;28;20186;-92
2021/06/28 06:12:29;;;;;;;6.80;6.30;;;23.70;77.60;;;;;;5026961;28;20170;-94
2021/06/28 06:14:55;;;;;;;7.18;6.47;;;23.80;76.90;;;;;;5010019;28;20239;-92
2021/06/28 06:17:21;;;;;;;7.10;6.47;;;23.80;77.80;;;;;;5032890;28;20193;-92
2021/06/28 06:19:47;;;;;;;7.25;6.55;;;23.90;77.40;;;;;;5008597;28;20196;-92
2021/06/28 06:22:13;;;;;;;7.07;6.30;;;24.00;75.70;;;;;;5026269;28;20178;-91
2021/06/28 06:24:39;;;;;;;6.93;6.22;;;24.10;75.10;;;;;;5028067;28;20269;-92
2021/06/28 06:27:10;;;;;;;6.88;5.88;;;24.20;74.50;;;;;;5041396;28;20211;-91
2021/06/28 06:29:39;;;;;;;6.10;5.53;;;24.10;76.40;;;;;;5033309;28;20208;-90
2021/06/28 06:32:12;;;;;;;5.78;5.20;;;24.20;75.10;;;;;;5039009;28;20185;-92
2021/06/28 06:34:41;;;;;;;6.40;5.80;;;24.10;72.70;;;;;;5033673;28;20193;-91
2021/06/28 06:37:17;;;;;;;5.72;5.22;;;23.90;74.40;;;;;;5043921;28;20230;-92
2021/06/28 06:39:43;;;;;;;6.47;4.97;;;23.90;74.10;;;;;;5040216;28;20180;-91
2021/06/28 06:42:38;;;;;;;5.63;5.15;;;23.90;73.30;;;;;;5034125;28;20201;-92
2021/06/28 06:45:05;;;;;;;5.75;5.20;;;23.90;72.90;;;;;;4996009;28;20221;-92
2021/06/28 06:52:42;;;;;;;6.22;4.80;;;23.90;74.50;;;;;;5002635;23;20224;-91
2021/06/28 06:55:12;;;;;;;5.43;4.93;;;23.80;75.90;;;;;;5046136;28;20861;-92
2021/06/28 06:57:39;;;;;;;4.47;4.18;;;23.90;74.30;;;;;;5033883;28;20242;-91
2021/06/28 07:00:13;;;;;;;6.38;4.55;;;23.80;74.20;;;;;;5038176;28;20748;-91
2021/06/28 07:02:49;;;;;;;6.05;4.93;;;23.90;73.50;;;;;;5036701;28;20188;-92
2021/06/28 07:05:16;;;;;;;6.50;4.68;;;24.10;72.90;;;;;;5030192;28;20224;-92
2021/06/28 07:07:43;;;;;;;6.32;5.15;;;24.00;72.00;;;;;;5047042;28;20201;-92
2021/06/28 07:10:11;;;;;;;4.82;4.50;;;23.90;73.50;;;;;;5038650;28;20193;-92
2021/06/28 07:13:02;;;;;;;6.03;5.20;;;23.90;73.50;;;;;;5019672;28;20201;-92
2021/06/28 07:16:34;;;;;;;5.30;4.75;;;23.80;73.50;;;;;;5040222;28;20185;-94
2021/06/28 07:21:36;;;;;;;4.88;4.57;;;24.00;73.70;;;;;;5039070;23;20245;-92
2021/06/28 07:24:02;;;;;;;5.03;4.53;;;24.00;72.80;;;;;;4987167;28;20305;-93
2021/06/28 07:26:28;;;;;;;4.90;4.50;;;24.10;72.60;;;;;;5002087;28;20183;-93
2021/06/28 07:28:54;;;;;;;6.65;4.53;;;24.20;72.10;;;;;;5003540;28;20242;-94
2021/06/28 07:31:23;;;;;;;5.18;4.75;;;24.40;71.40;;;;;;4991270;28;20190;-93
2021/06/28 07:33:49;;;;;;;5.45;4.95;;;24.50;71.30;;;;;;5002933;28;20225;-92
2021/06/28 07:36:15;;;;;;;5.60;4.70;;;24.50;71.10;;;;;;4984094;28;20190;-93
2021/06/28 07:38:41;;;;;;;5.70;4.82;;;24.60;71.00;;;;;;4986139;28;20514;-93
2021/06/28 07:41:08;;;;;;;5.18;4.88;;;24.70;70.70;;;;;;4974385;28;20716;-93
2021/06/28 07:43:34;;;;;;;5.30;4.80;;;24.80;70.00;;;;;;5006885;28;20221;-93
2021/06/28 07:46:01;;;;;;;4.63;4.22;;;24.90;69.00;;;;;;4980716;28;20197;-92
2021/06/28 07:48:30;;;;;;;5.25;4.85;;;25.10;68.20;;;;;;4982158;28;20178;-94
2021/06/28 07:50:55;;;;;;;4.65;4.35;;;25.20;68.40;;;;;;4991282;28;20213;-92
2021/06/28 07:53:21;;;;;;;4.68;4.30;;;25.30;68.00;;;;;;4983362;28;20226;-92
2021/06/28 07:55:47;;;;;;;5.15;4.75;;;25.40;66.10;;;;;;4991718;28;20241;-92
2021/06/28 07:58:14;;;;;;;7.43;4.70;;;25.60;65.00;;;;;;4958388;28;20188;-92
2021/06/28 08:00:40;;;;;;;4.38;4.07;;;25.80;65.40;;;;;;4998385;28;20578;-91
2021/06/28 08:03:07;;;;;;;4.70;4.30;;;25.70;64.00;;;;;;4997848;28;20207;-91
2021/06/28 08:05:34;;;;;;;5.13;4.78;;;25.90;62.60;;;;;;4998298;28;20217;-91
2021/06/28 08:08:04;;;;;;;5.05;4.68;;;25.80;64.30;;;;;;4994453;28;20190;-91
2021/06/28 08:10:30;;;;;;;4.72;4.32;;;25.80;65.10;;;;;;4979638;28;20297;-92
2021/06/28 08:12:56;;;;;;;4.70;4.13;;;25.90;64.70;;;;;;5009448;28;20202;-93
2021/06/28 08:15:22;;;;;;;4.10;3.70;;;26.10;63.90;;;;;;4990836;28;20217;-93
2021/06/28 08:17:49;;;;;;;3.70;3.22;;;26.00;60.40;;;;;;4974155;28;20194;-92
2021/06/28 08:20:17;;;;;;;3.95;3.55;;;25.70;61.10;;;;;;5004251;28;20611;-94
2021/06/28 08:22:43;;;;;;;5.32;4.22;;;25.70;63.40;;;;;;4990662;28;20202;-92
2021/06/28 08:25:11;;;;;;;4.43;4.13;;;25.70;64.10;;;;;;4974013;28;20218;-94
2021/06/28 08:27:36;;;;;;;3.97;3.67;;;25.70;65.30;;;;;;4974572;28;20189;-93
2021/06/28 08:30:05;;;;;;;4.45;4.13;;;25.70;64.40;;;;;;4990007;28;20258;-93
2021/06/28 08:32:31;;;;;;;5.50;4.22;;;25.80;63.60;;;;;;4990904;28;20206;-93
2021/06/28 08:34:59;;;;;;;4.80;4.35;;;25.70;66.30;;;;;;4990115;28;20589;-93
2021/06/28 08:37:25;;;;;;;4.85;4.03;;;25.80;66.90;;;;;;4989901;28;20212;-93
2021/06/28 08:39:51;;;;;;;4.45;4.07;;;25.90;67.30;;;;;;4970217;28;20183;-94
2021/06/28 08:42:18;;;;;;;4.32;3.95;;;26.10;65.00;;;;;;4971845;28;20218;-94
2021/06/28 08:44:45;;;;;;;4.10;3.80;;;26.30;63.00;;;;;;4991327;28;20225;-93
2021/06/28 08:47:11;;;;;;;4.55;4.15;;;26.40;63.60;;;;;;5000709;28;20650;-94
2021/06/28 08:49:40;;;;;;;5.22;4.82;;;26.20;64.60;;;;;;4974727;28;20221;-93
2021/06/28 08:52:06;;;;;;;5.25;4.85;;;26.40;64.60;;;;;;4990315;28;20206;-94
2021/06/28 08:54:32;;;;;;;4.55;3.90;;;26.40;63.80;;;;;;4984399;28;20233;-93
2021/06/28 08:56:58;;;;;;;5.00;4.28;;;26.30;65.70;;;;;;4986707;28;20187;-94
2021/06/28 08:59:24;;;;;;;5.07;4.47;;;26.40;65.20;;;;;;5000153;28;20233;-92
2021/06/28 09:01:51;;;;;;;4.53;4.13;;;26.40;64.30;;;;;;4990139;28;20242;-93
2021/06/28 09:04:17;;;;;;;5.32;4.82;;;26.50;63.10;;;;;;5003395;28;20680;-93
2021/06/28 09:06:45;;;;;;;4.78;4.38;;;26.50;63.30;;;;;;4989686;28;20178;-92
2021/06/28 09:09:16;;;;;;;5.18;4.68;;;26.50;62.90;;;;;;5002624;28;20175;-94
2021/06/28 09:11:48;;;;;;;4.55;4.25;;;26.60;63.50;;;;;;4996137;28;20194;-93
2021/06/28 09:14:15;;;;;;;4.45;4.05;;;26.60;61.30;;;;;;4991944;28;20197;-93
2021/06/28 09:16:43;;;;;;;4.70;4.40;;;26.90;60.90;;;;;;4987566;28;20201;-95
2021/06/28 09:19:14;;;;;;;4.18;3.88;;;26.90;59.80;;;;;;4996606;28;20729;-92
2021/06/28 09:21:45;;;;;;;4.65;4.30;;;27.10;61.80;;;;;;4987416;28;20208;-92
2021/06/28 09:24:30;;;;;;;4.80;4.40;;;27.30;62.20;;;;;;4986478;28;20217;-93
2021/06/28 09:27:18;;;;;;;5.10;4.70;;;27.30;62.00;;;;;;4984189;28;20186;-93
2021/06/28 09:29:49;;;;;;;4.75;4.45;;;27.30;59.40;;;;;;4991617;28;20185;-92
2021/06/28 09:32:18;;;;;;;4.38;4.07;;;27.40;58.30;;;;;;4974746;28;20230;-92
2021/06/28 09:34:46;;;;;;;4.55;4.13;;;27.50;56.90;;;;;;4985259;28;20241;-93
2021/06/28 09:37:25;;;;;;;4.30;4.05;;;27.60;55.30;;;;;;4982885;28;20194;-92
2021/06/28 09:39:53;;;;;;;5.85;4.30;;;27.50;54.70;;;;;;4980597;28;20186;-92
2021/06/28 09:42:21;;;;;;;4.95;4.28;;;27.70;53.70;;;;;;4978849;28;20225;-92
2021/06/28 09:45:01;;;;;;;4.93;3.85;;;27.60;54.70;;;;;;4973069;28;20257;-92
2021/06/28 09:47:34;;;;;;;4.35;4.05;;;27.60;54.20;;;;;;4969208;28;20194;-93
2021/06/28 09:50:15;;;;;;;4.07;3.78;;;27.90;53.50;;;;;;5000973;28;20642;-92
2021/06/28 09:52:47;;;;;;;4.13;3.85;;;28.10;52.30;;;;;;4989424;28;20230;-92
2021/06/28 09:55:29;;;;;;;5.65;3.92;;;28.30;53.10;;;;;;4973093;28;20261;-93
2021/06/28 09:58:13;;;;;;;4.32;3.92;;;28.60;54.50;;;;;;4982169;28;20182;-93
2021/06/28 10:01:06;;;;;;;4.25;4.03;;;28.80;51.80;;;;;;4964560;28;20187;-92
2021/06/28 10:03:39;;;;;;;4.63;4.22;;;29.00;51.30;;;;;;4964975;28;20211;-93
2021/06/28 10:06:26;;;;;;;4.53;4.13;;;29.00;50.70;;;;;;4964893;28;20233;-93
2021/06/28 10:09:02;;;;;;;4.00;3.72;;;29.20;51.50;;;;;;4980352;28;20669;-92
2021/06/28 10:11:29;;;;;;;4.25;4.03;;;29.30;50.50;;;;;;5004898;28;20592;-93
2021/06/28 10:13:57;;;;;;;4.80;4.50;;;29.60;51.00;;;;;;5002067;28;20301;-93
2021/06/28 10:16:25;;;;;;;5.00;4.60;;;29.50;52.40;;;;;;4988137;28;20191;-93
2021/06/28 10:18:52;;;;;;;4.53;4.22;;;29.40;52.90;;;;;;4973619;28;20218;-93
2021/06/28 10:21:18;;;;;;;5.50;5.00;;;29.80;51.00;;;;;;4974258;28;20206;-91
2021/06/28 10:23:44;;;;;;;5.00;4.20;;;29.80;52.30;;;;;;4999968;28;20250;-92
2021/06/28 10:26:10;;;;;;;5.00;4.65;;;30.10;51.20;;;;;;4996438;28;20191;-92
2021/06/28 10:28:37;;;;;;;4.97;4.57;;;30.40;50.10;;;;;;4998959;28;20211;-92
2021/06/28 10:31:04;;;;;;;4.60;4.30;;;30.60;50.60;;;;;;4986695;28;20223;-92
2021/06/28 10:33:31;;;;;;;5.60;4.57;;;30.40;48.20;;;;;;4998771;28;20206;-92
2021/06/28 10:36:03;;;;;;;4.88;4.55;;;30.50;47.40;;;;;;4998610;28;20186;-92
2021/06/28 10:38:47;;;;;;;5.03;4.50;;;30.80;46.90;;;;;;4992458;28;20262;-92
2021/06/28 10:41:32;;;;;;;4.85;4.45;;;31.00;47.60;;;;;;4997456;28;20190;-92
2021/06/28 10:43:58;;;;;;;4.90;4.60;;;30.90;45.90;;;;;;5001225;28;20250;-93
2021/06/28 10:46:34;;;;;;;5.53;5.03;;;30.60;46.00;;;;;;4994757;28;20242;-92
2021/06/28 10:49:00;;;;;;;5.47;5.07;;;30.40;47.30;;;;;;4984503;28;20699;-92
2021/06/28 10:51:48;;;;;;;4.88;4.47;;;30.20;47.80;;;;;;4985656;28;20182;-92
2021/06/28 10:54:33;;;;;;;5.18;4.68;;;30.70;46.60;;;;;;4996216;28;20190;-92
2021/06/28 10:57:01;;;;;;;4.70;4.30;;;30.90;47.10;;;;;;4994747;28;20308;-91
2021/06/28 10:59:32;;;;;;;4.90;4.60;;;30.90;47.40;;;;;;4998118;28;20225;-92
2021/06/28 11:02:05;;;;;;;4.68;4.35;;;30.90;47.00;;;;;;5007409;28;20182;-91
2021/06/28 11:04:38;;;;;;;4.95;4.65;;;31.10;48.00;;;;;;5000281;28;20230;-92
2021/06/28 11:07:09;;;;;;;5.53;5.15;;;31.10;46.90;;;;;;4995851;28;20213;-92
2021/06/28 11:09:50;;;;;;;5.70;5.30;;;30.80;47.10;;;;;;4988387;28;20254;-91
2021/06/28 11:12:22;;;;;;;5.90;5.05;;;30.80;46.00;;;;;;4996118;28;20218;-92
2021/06/28 11:15:23;;;;;;;5.38;4.72;;;31.00;46.40;;;;;;4986483;28;20197;-90
2021/06/28 11:17:56;;;;;;;5.03;4.65;;;31.10;46.00;;;;;;4998324;28;20194;-93
2021/06/28 11:20:34;;;;;;;5.15;4.75;;;31.30;46.60;;;;;;4998704;28;20269;-90
2021/06/28 11:23:17;;;;;;;5.90;5.45;;;31.80;47.70;;;;;;4981513;28;20214;-92
2021/06/28 11:25:46;;;;;;;5.20;4.70;;;31.60;47.20;;;;;;4967197;28;20190;-90
2021/06/28 11:28:25;;;;;;;5.40;5.00;;;31.90;45.40;;;;;;4986985;28;20205;-91
2021/06/28 11:30:53;;;;;;;5.15;4.75;;;32.20;48.70;;;;;;4977445;28;20198;-91
2021/06/28 11:33:38;;;;;;;5.47;5.07;;;32.20;47.50;;;;;;5000898;28;20234;-90
2021/06/28 11:36:24;;;;;;;5.70;5.20;;;32.30;46.10;;;;;;4996500;28;20183;-91
2021/06/28 11:38:51;;;;;;;5.60;5.20;;;32.60;46.60;;;;;;4998250;28;20194;-91
2021/06/28 11:41:19;;;;;;;5.95;5.30;;;32.50;45.30;;;;;;4992683;28;20254;-91
2021/06/28 11:43:50;;;;;;;5.47;5.18;;;32.30;46.30;;;;;;5002302;28;20218;-92
2021/06/28 11:46:26;;;;;;;5.70;5.25;;;32.50;47.20;;;;;;4997681;28;20183;-91
2021/06/28 11:48:56;;;;;;;5.68;5.28;;;32.90;46.40;;;;;;4993712;28;20195;-92
2021/06/28 11:51:30;;;;;;;5.82;5.43;;;32.80;45.60;;;;;;5000935;28;20834;-91
2021/06/28 11:54:02;;;;;;;5.82;5.32;;;32.90;44.60;;;;;;4987795;28;20210;-91
2021/06/28 11:56:35;;;;;;;6.55;6.05;;;33.10;45.20;;;;;;4991623;28;20269;-91
2021/06/28 11:59:04;;;;;;;6.90;5.43;;;33.30;44.30;;;;;;5000374;28;20657;-91
2021/06/28 12:01:38;;;;;;;5.70;5.30;;;33.30;44.30;;;;;;5002013;28;20278;-92
2021/06/28 12:04:06;;;;;;;5.45;5.05;;;33.40;43.50;;;;;;4985970;28;20276;-91
2021/06/28 12:06:34;;;;;;;5.65;5.30;;;33.30;44.40;;;;;;4989853;28;20191;-91
2021/06/28 12:09:12;;;;;;;6.18;5.57;;;33.30;44.40;;;;;;4995125;28;20186;-92
2021/06/28 12:12:03;;;;;;;5.40;5.10;;;33.10;43.60;;;;;;4996662;28;20183;-91
2021/06/28 12:14:39;;;;;;;5.75;5.15;;;32.90;43.50;;;;;;4988519;28;20191;-92
2021/06/28 12:17:11;;;;;;;6.32;5.82;;;33.10;43.40;;;;;;4996935;28;20192;-92
2021/06/28 12:19:38;;;;;;;6.18;5.68;;;33.20;43.30;;;;;;4982884;28;20195;-91
2021/06/28 12:22:09;;;;;;;6.05;5.65;;;32.90;42.20;;;;;;4998171;28;20214;-92
2021/06/28 12:24:34;;;;;;;6.30;5.80;;;33.00;44.10;;;;;;4994995;28;20210;-92
2021/06/28 12:27:05;;;;;;;6.38;5.85;;;33.00;43.90;;;;;;4981598;28;20201;-92
2021/06/28 12:29:34;;;;;;;7.03;5.63;;;33.20;44.70;;;;;;4994024;28;20265;-91
2021/06/28 12:32:23;;;;;;;7.10;5.22;;;33.50;43.10;;;;;;5005701;28;20206;-91
2021/06/28 12:35:00;;;;;;;5.97;5.50;;;33.60;41.60;;;;;;4995425;28;20230;-92
2021/06/28 12:37:55;;;;;;;7.32;6.07;;;33.60;42.40;;;;;;4972432;28;20202;-92
2021/06/28 12:40:29;;;;;;;5.90;5.35;;;33.30;42.00;;;;;;4984771;28;20190;-92
2021/06/28 12:42:58;;;;;;;5.63;5.22;;;33.60;43.70;;;;;;4991352;28;20208;-91
2021/06/28 12:45:28;;;;;;;6.72;5.50;;;34.00;42.20;;;;;;4992201;28;20218;-92
2021/06/28 12:47:56;;;;;;;5.97;5.47;;;34.30;40.40;;;;;;4994057;28;20202;-91
2021/06/28 12:50:29;;;;;;;6.15;5.63;;;33.90;41.20;;;;;;4989545;28;20195;-91
2021/06/28 12:52:55;;;;;;;5.90;5.40;;;34.20;40.90;;;;;;4979847;28;20209;-91
2021/06/28 12:55:29;;;;;;;6.57;5.80;;;34.20;40.20;;;;;;5000286;28;20818;-92
2021/06/28 12:58:13;;;;;;;6.65;6.07;;;34.10;39.80;;;;;;5000224;28;20208;-92
2021/06/28 13:00:45;;;;;;;6.35;5.80;;;34.60;39.70;;;;;;5002986;28;20195;-92
2021/06/28 13:03:19;;;;;;;6.15;5.60;;;34.70;38.90;;;;;;5000546;28;20245;-92
2021/06/28 13:05:52;;;;;;;6.43;5.93;;;34.90;38.00;;;;;;5001062;28;20186;-93
2021/06/28 13:08:25;;;;;;;6.00;5.60;;;34.60;37.80;;;;;;4982993;28;20187;-91
2021/06/28 13:11:00;;;;;;;6.30;5.75;;;34.30;37.60;;;;;;4998051;28;20196;-92
2021/06/28 13:13:30;;;;;;;5.85;5.45;;;34.50;36.90;;;;;;4970195;28;20209;-91
2021/06/28 13:16:17;;;;;;;5.97;5.43;;;34.70;37.50;;;;;;5002793;28;20941;-92
2021/06/28 13:18:56;;;;;;;5.70;5.25;;;35.10;37.60;;;;;;4991916;28;20728;-93
2021/06/28 13:21:24;;;;;;;5.38;4.90;;;35.40;36.40;;;;;;5002918;28;20289;-91
2021/06/28 13:23:54;;;;;;;5.68;5.28;;;35.60;35.50;;;;;;4971845;28;20218;-90
2021/06/28 13:26:26;;;;;;;5.25;4.95;;;35.50;33.90;;;;;;4976111;28;20719;-90
2021/06/28 13:28:58;;;;;;;5.63;5.22;;;36.10;34.10;;;;;;4980057;28;20221;-91
2021/06/28 13:31:25;;;;;;;6.00;5.50;;;36.00;34.10;;;;;;4995776;28;20241;-90
2021/06/28 13:34:06;;;;;;;5.50;5.20;;;35.60;34.30;;;;;;5001309;28;20210;-90
2021/06/28 13:36:33;;;;;;;5.82;5.22;;;35.40;34.50;;;;;;4996964;28;20198;-90
2021/06/28 13:38:58;;;;;;;5.15;4.85;;;34.90;34.20;;;;;;4995989;28;20553;-90
2021/06/28 13:41:41;;;;;;;5.32;4.95;;;35.20;34.50;;;;;;4999191;28;20196;-90
2021/06/28 13:44:10;;;;;;;5.57;5.28;;;35.40;34.60;;;;;;4999854;28;20232;-90
2021/06/28 13:46:36;;;;;;;5.30;5.00;;;35.90;34.40;;;;;;5005796;28;20174;-90
2021/06/28 13:49:19;;;;;;;6.25;5.85;;;35.90;36.10;;;;;;4983995;28;20198;-91
2021/06/28 13:51:46;;;;;;;5.75;5.45;;;35.40;35.10;;;;;;4965882;28;20252;-90
2021/06/28 13:54:11;;;;;;;5.82;5.45;;;35.60;34.70;;;;;;4996891;28;20261;-91
2021/06/28 13:56:38;;;;;;;6.05;5.75;;;36.40;33.90;;;;;;5009951;28;20268;-90
2021/06/28 13:59:04;;;;;;;6.13;5.72;;;36.70;33.20;;;;;;4992810;28;20181;-90
2021/06/28 14:01:30;;;;;;;5.93;5.50;;;36.60;32.60;;;;;;4967858;28;20201;-90
2021/06/28 14:03:56;;;;;;;5.78;5.47;;;36.90;32.10;;;;;;5002069;28;20593;-90
2021/06/28 14:06:22;;;;;;;5.97;5.57;;;36.80;32.60;;;;;;4998507;28;20281;-90
2021/06/28 14:08:48;;;;;;;6.00;5.70;;;36.70;32.90;;;;;;4990646;28;20188;-90
2021/06/28 14:11:13;;;;;;;6.30;5.90;;;36.60;33.60;;;;;;4994282;28;20218;-90
2021/06/28 14:13:39;;;;;;;6.60;6.10;;;36.90;32.70;;;;;;4997543;28;20206;-90
2021/06/28 14:16:05;;;;;;;6.63;6.10;;;37.00;33.90;;;;;;5002648;28;20194;-90
2021/06/28 14:18:30;;;;;;;6.63;6.05;;;36.80;33.10;;;;;;5000575;28;20661;-90
2021/06/28 14:20:56;;;;;;;6.80;6.30;;;36.40;35.10;;;;;;4999188;28;20573;-91
2021/06/28 14:23:22;;;;;;;5.85;5.55;;;36.60;34.10;;;;;;5002612;28;20217;-90
2021/06/28 14:25:48;;;;;;;6.40;5.97;;;37.20;33.60;;;;;;4974868;28;20213;-91
2021/06/28 14:28:14;;;;;;;6.45;5.95;;;37.50;33.40;;;;;;4998726;28;20548;-90
2021/06/28 14:30:40;;;;;;;6.30;5.90;;;38.00;33.30;;;;;;4989736;28;20254;-89
2021/06/28 14:33:06;;;;;;;6.65;6.15;;;38.00;32.50;;;;;;5000280;28;20256;-90
2021/06/28 14:35:33;;;;;;;7.03;6.35;;;37.50;32.60;;;;;;4981731;28;20462;-90
2021/06/28 14:38:00;;;;;;;6.63;6.07;;;37.40;33.50;;;;;;4985951;28;20352;-89
2021/06/28 14:40:25;;;;;;;6.72;6.32;;;37.20;33.40;;;;;;4994389;28;20182;-90
2021/06/28 14:42:51;;;;;;;6.53;6.03;;;37.40;33.10;;;;;;4996004;28;20221;-91
2021/06/28 14:45:17;;;;;;;6.07;5.78;;;37.40;34.10;;;;;;5000594;28;20307;-91
2021/06/28 14:47:43;;;;;;;6.20;5.80;;;37.90;32.70;;;;;;5001218;28;20194;-91
2021/06/28 14:50:09;;;;;;;6.50;6.00;;;37.60;32.80;;;;;;4980782;28;20186;-91
2021/06/28 14:52:37;;;;;;;6.40;6.00;;;38.10;32.60;;;;;;4997316;28;20205;-91
2021/06/28 14:55:04;;;;;;;7.03;6.47;;;38.60;32.00;;;;;;4997051;28;20186;-90
2021/06/28 14:57:30;;;;;;;7.07;6.50;;;38.40;32.30;;;;;;4989733;28;20216;-90
2021/06/28 14:59:55;;;;;;;7.32;6.72;;;38.20;32.60;;;;;;5004822;28;20190;-91
2021/06/28 15:02:22;;;;;;;6.72;6.32;;;38.30;32.70;;;;;;5002416;28;20220;-91
2021/06/28 15:04:48;;;;;;;6.90;6.50;;;38.60;32.50;;;;;;4998522;28;20217;-90
2021/06/28 15:07:14;;;;;;;7.15;6.65;;;38.60;32.60;;;;;;4989325;28;20198;-91
2021/06/28 15:09:40;;;;;;;6.43;6.13;;;38.60;32.80;;;;;;5006354;28;20232;-91
2021/06/28 15:12:07;;;;;;;6.65;6.35;;;38.20;33.00;;;;;;5000533;28;20201;-91
2021/06/28 15:14:32;;;;;;;7.47;7.07;;;38.10;33.80;;;;;;4986584;28;20221;-92
2021/06/28 15:16:58;;;;;;;7.45;6.95;;;38.20;33.50;;;;;;5008008;28;20185;-92
2021/06/28 15:19:24;;;;;;;6.68;6.38;;;38.40;33.00;;;;;;4997704;28;20259;-92
2021/06/28 15:21:50;;;;;;;7.60;7.03;;;38.60;32.90;;;;;;4984845;28;20281;-91
2021/06/28 15:24:17;;;;;;;7.22;6.72;;;38.70;32.50;;;;;;4983678;28;20205;-91
2021/06/28 15:26:44;;;;;;;7.00;6.60;;;37.80;34.20;;;;;;5008508;28;20240;-92
2021/06/28 15:29:10;;;;;;;6.90;6.50;;;37.70;33.90;;;;;;4991442;28;20241;-92
2021/06/28 15:31:36;;;;;;;6.70;6.30;;;37.70;34.10;;;;;;5007251;28;20209;-91
2021/06/28 15:34:01;;;;;;;7.10;6.43;;;37.20;35.30;;;;;;5008175;28;20247;-92
2021/06/28 15:36:27;;;;;;;7.30;6.80;;;36.70;35.60;;;;;;5003463;28;20633;-92
2021/06/28 15:38:53;;;;;;;6.45;6.13;;;36.40;36.50;;;;;;4978152;28;20266;-91
2021/06/28 15:41:19;;;;;;;6.65;6.03;;;36.10;37.30;;;;;;4986353;28;20197;-91
2021/06/28 15:43:45;;;;;;;6.72;6.22;;;35.90;36.80;;;;;;4988205;28;20236;-91
2021/06/28 15:46:13;;;;;;;6.63;6.22;;;35.80;37.60;;;;;;4998928;28;20190;-90
2021/06/28 15:48:39;;;;;;;6.68;6.25;;;35.70;37.70;;;;;;4999430;28;20185;-90
2021/06/28 15:51:06;;;;;;;7.68;6.45;;;35.50;38.60;;;;;;4994448;28;20189;-90
2021/06/28 15:53:32;;;;;;;5.45;5.15;;;35.10;41.60;;;;;;4997224;28;20217;-90
2021/06/28 15:56:03;;;;;;;5.60;5.28;;;34.40;40.80;;;;;;4990119;28;20194;-93
2021/06/28 15:58:29;;;;;;;5.60;5.15;;;34.20;41.60;;;;;;5002804;28;20202;-91
2021/06/28 16:00:55;;;;;;;5.25;4.95;;;34.00;42.10;;;;;;5001869;28;20178;-91
2021/06/28 16:03:21;;;;;;;5.10;4.80;;;33.90;41.60;;;;;;4985382;28;20305;-90
2021/06/28 16:05:47;;;;;;;5.10;4.80;;;33.90;39.40;;;;;;4996766;28;20242;-91
2021/06/28 16:08:13;;;;;;;5.57;5.05;;;33.80;40.50;;;;;;4983960;28;20187;-90